createdAt,value
2023-03-05T00:03:48.087Z,31.60
2023-03-05T00:07:47.952Z,32.91
2023-03-05T00:11:47.954Z,30.98
2023-03-05T00:15:47.937Z,33.45
2023-03-05T00:19:47.821Z,33.11
2023-03-05T00:23:47.815Z,37.82
2023-03-05T00:27:47.741Z,33.64
2023-03-05T00:31:47.726Z,32.97
2023-03-05T00:35:47.868Z,33.05
2023-03-05T00:39:47.792Z,30.62
2023-03-05T00:43:47.755Z,34.45
2023-03-05T00:47:47.678Z,33.50
2023-03-05T00:51:47.683Z,33.38
2023-03-05T00:55:47.630Z,30.67
2023-03-05T00:59:47.597Z,34.24
2023-03-05T01:03:47.575Z,33.45
2023-03-05T01:07:47.494Z,30.02
2023-03-05T01:11:47.454Z,35.09
2023-03-05T01:15:47.545Z,36.12
2023-03-05T01:19:47.720Z,30.79
2023-03-05T01:23:47.916Z,35.99
2023-03-05T01:27:48.057Z,32.49
2023-03-05T01:31:48.242Z,34.06
2023-03-05T01:35:48.311Z,34.03
2023-03-05T01:39:48.327Z,33.20
2023-03-05T01:43:48.365Z,36.09
2023-03-05T01:47:48.435Z,35.16
2023-03-05T01:51:48.550Z,33.52
2023-03-05T01:55:48.548Z,33.72
2023-03-05T01:59:48.612Z,34.34
2023-03-05T02:03:48.749Z,33.13
2023-03-05T02:07:48.700Z,34.09
2023-03-05T02:11:48.703Z,33.89
2023-03-05T02:15:48.774Z,33.40
2023-03-05T02:19:48.862Z,36.53
2023-03-05T02:23:48.932Z,35.76
2023-03-05T02:27:49.149Z,36.41
2023-03-05T02:31:49.251Z,34.94
2023-03-05T02:35:49.254Z,33.58
2023-03-05T02:39:49.212Z,33.87
2023-03-05T02:43:49.169Z,35.06
2023-03-05T02:47:49.126Z,34.16
2023-03-05T02:51:49.117Z,33.50
2023-03-05T02:55:49.043Z,34.16
2023-03-05T02:59:49.071Z,32.76
2023-03-05T03:03:48.992Z,35.28
2023-03-05T03:07:48.914Z,37.16
2023-03-05T03:11:48.915Z,38.18
2023-03-05T03:15:48.863Z,35.96
2023-03-05T03:19:48.875Z,34.40
2023-03-05T03:23:48.893Z,36.14
2023-03-05T03:27:48.781Z,35.05
2023-03-05T03:31:48.701Z,32.40
2023-03-05T03:35:48.725Z,35.86
2023-03-05T03:39:48.652Z,35.30
2023-03-05T03:43:48.639Z,36.02
2023-03-05T03:47:48.593Z,36.60
2023-03-05T03:51:48.566Z,33.55
2023-03-05T03:55:48.564Z,35.69
2023-03-05T03:59:48.519Z,34.00
2023-03-05T04:03:48.490Z,35.43
2023-03-05T04:07:48.427Z,33.33
2023-03-05T04:11:48.400Z,33.07
2023-03-05T04:15:48.421Z,34.89
2023-03-05T04:19:48.317Z,36.29
2023-03-05T04:23:48.272Z,33.02
2023-03-05T04:27:48.236Z,35.69
2023-03-05T04:31:48.285Z,34.51
2023-03-05T04:35:48.199Z,38.40
2023-03-05T04:39:48.145Z,36.33
2023-03-05T04:43:48.103Z,39.50
2023-03-05T04:47:48.070Z,37.31
2023-03-05T04:51:48.054Z,36.90
2023-03-05T04:55:48.010Z,38.04
2023-03-05T04:59:47.969Z,35.51
2023-03-05T05:03:47.981Z,36.67
2023-03-05T05:07:47.893Z,35.95
2023-03-05T05:11:47.874Z,38.42
2023-03-05T05:15:47.807Z,37.11
2023-03-05T05:19:47.793Z,37.59
2023-03-05T05:23:47.765Z,38.84
2023-03-05T05:27:47.711Z,37.47
2023-03-05T05:31:47.786Z,39.18
2023-03-05T05:35:47.652Z,38.66
2023-03-05T05:39:47.630Z,35.40
2023-03-05T05:43:47.551Z,38.23
2023-03-05T05:47:47.573Z,35.83
2023-03-05T05:51:47.605Z,40.14
2023-03-05T05:55:47.675Z,39.72
2023-03-05T05:59:47.770Z,39.40
2023-03-05T06:03:47.869Z,38.20
2023-03-05T06:07:47.966Z,37.78
2023-03-05T06:11:48.097Z,38.02
2023-03-05T06:15:48.144Z,39.09
2023-03-05T06:19:48.291Z,38.84
2023-03-05T06:23:48.376Z,43.27
2023-03-05T06:27:48.507Z,39.72
2023-03-05T06:31:48.571Z,38.06
2023-03-05T06:35:48.674Z,40.14
2023-03-05T06:39:48.734Z,42.50
2023-03-05T06:43:48.806Z,37.07
2023-03-05T06:47:48.913Z,41.31
2023-03-05T06:51:49.024Z,40.67
2023-03-05T06:55:49.061Z,42.39
2023-03-05T06:59:49.172Z,38.82
2023-03-05T07:03:49.300Z,41.30
2023-03-05T07:07:49.367Z,41.46
2023-03-05T07:11:49.433Z,43.98
2023-03-05T07:15:49.576Z,38.60
2023-03-05T07:19:49.476Z,41.15
2023-03-05T07:23:49.440Z,41.24
2023-03-05T07:27:49.373Z,44.83
2023-03-05T07:31:49.360Z,41.66
2023-03-05T07:35:49.331Z,44.09
2023-03-05T07:39:49.275Z,43.03
2023-03-05T07:43:49.279Z,45.39
2023-03-05T07:47:51.606Z,48.62
2023-03-05T07:51:49.195Z,47.99
2023-03-05T07:55:49.156Z,48.10
2023-03-05T07:59:49.135Z,53.66
2023-03-05T08:03:49.104Z,53.17
2023-03-05T08:07:49.027Z,52.65
2023-03-05T08:11:48.974Z,57.04
2023-03-05T08:15:48.979Z,54.76
2023-03-05T08:19:48.957Z,59.14
2023-03-05T08:23:48.889Z,58.38
2023-03-05T08:27:48.993Z,59.87
2023-03-05T08:31:49.095Z,56.45
2023-03-05T08:35:49.244Z,56.74
2023-03-05T08:39:49.243Z,58.53
2023-03-05T08:43:49.314Z,60.68
2023-03-05T08:47:49.333Z,58.42
2023-03-05T08:51:49.360Z,55.95
2023-03-05T08:55:49.355Z,59.34
2023-03-05T08:59:49.550Z,60.44
2023-03-05T09:03:49.528Z,62.43
2023-03-05T09:07:49.476Z,62.55
2023-03-05T09:11:49.424Z,61.41
2023-03-05T09:15:49.404Z,61.50
2023-03-05T09:19:49.357Z,60.73
2023-03-05T09:23:49.338Z,60.82
2023-03-05T09:27:49.325Z,61.29
2023-03-05T09:31:49.290Z,62.62
2023-03-05T09:35:49.267Z,57.64
2023-03-05T09:39:49.234Z,58.05
2023-03-05T09:43:49.170Z,59.81
2023-03-05T09:47:49.112Z,59.39
2023-03-05T09:51:49.119Z,54.95
2023-03-05T09:55:49.044Z,54.09
2023-03-05T09:59:49.080Z,55.10
2023-03-05T10:03:49.174Z,52.49
2023-03-05T10:07:49.112Z,54.60
2023-03-05T10:11:49.113Z,51.66
2023-03-05T10:15:49.115Z,51.60
2023-03-05T10:19:49.133Z,52.24
2023-03-05T10:23:49.094Z,48.89
2023-03-05T10:27:49.112Z,48.25
2023-03-05T10:31:49.170Z,47.84
2023-03-05T10:35:49.206Z,46.06
2023-03-05T10:39:49.198Z,44.51
2023-03-05T10:43:49.292Z,44.91
2023-03-05T10:47:49.303Z,44.36
2023-03-05T10:51:49.364Z,42.91
2023-03-05T10:55:49.424Z,42.34
2023-03-05T10:59:49.439Z,42.60
2023-03-05T11:03:49.531Z,41.53
2023-03-05T11:07:49.600Z,40.98
2023-03-05T11:11:49.700Z,40.26
2023-03-05T11:15:49.825Z,42.10
2023-03-05T11:19:49.792Z,42.66
2023-03-05T11:23:49.855Z,38.22
2023-03-05T11:27:51.487Z,39.74
2023-03-05T11:31:49.902Z,38.70
2023-03-05T11:35:49.851Z,39.24
2023-03-05T11:39:49.815Z,39.88
2023-03-05T11:43:49.787Z,39.96
2023-03-05T11:47:49.728Z,36.03
2023-03-05T11:51:49.700Z,38.58
2023-03-05T11:55:49.657Z,35.78
2023-03-05T11:59:49.620Z,35.72
2023-03-05T12:03:49.665Z,34.93
2023-03-05T12:07:49.545Z,37.82
2023-03-05T12:11:49.529Z,35.75
2023-03-05T12:15:49.554Z,35.07
2023-03-05T12:19:49.465Z,34.59
2023-03-05T12:23:49.444Z,34.05
2023-03-05T12:27:49.360Z,34.13
2023-03-05T12:31:49.405Z,35.08
2023-03-05T12:35:49.624Z,33.77
2023-03-05T12:39:49.280Z,31.85
2023-03-05T12:43:49.260Z,31.81
2023-03-05T12:47:49.217Z,33.48
2023-03-05T12:51:49.295Z,31.81
2023-03-05T12:55:49.362Z,32.08
2023-03-05T12:59:49.430Z,31.89
2023-03-05T13:03:49.519Z,31.60
2023-03-05T13:07:49.582Z,32.59
2023-03-05T13:11:49.740Z,32.46
2023-03-05T13:15:49.738Z,32.72
2023-03-05T13:19:49.818Z,29.19
2023-03-05T13:23:49.912Z,31.16
2023-03-05T13:27:49.940Z,31.82
2023-03-05T13:31:50.102Z,30.87
2023-03-05T13:35:51.894Z,29.53
2023-03-05T13:39:50.253Z,28.74
2023-03-05T13:43:50.327Z,28.70
2023-03-05T13:47:50.494Z,27.73
2023-03-05T13:51:50.495Z,26.61
2023-03-05T13:55:50.660Z,28.16
2023-03-05T13:59:50.724Z,30.44
2023-03-05T14:03:50.828Z,30.55
2023-03-05T14:07:50.934Z,27.01
2023-03-05T14:11:51.056Z,29.64
2023-03-05T14:15:51.081Z,27.94
2023-03-05T14:19:51.214Z,28.27
2023-03-05T14:23:51.307Z,25.49
2023-03-05T14:27:51.549Z,27.09
2023-03-05T14:31:51.545Z,27.46
2023-03-05T14:35:51.756Z,28.27
2023-03-05T14:39:51.784Z,29.10
2023-03-05T14:43:51.889Z,30.16
2023-03-05T14:47:52.057Z,28.05
2023-03-05T14:51:52.189Z,27.46
2023-03-05T14:55:52.340Z,25.56
2023-03-05T14:59:52.543Z,27.65
2023-03-05T15:03:52.700Z,25.77
2023-03-05T15:07:52.885Z,25.68
2023-03-05T15:11:53.010Z,29.43
2023-03-05T15:15:53.277Z,27.52
2023-03-05T15:19:53.407Z,27.20
2023-03-05T15:23:53.605Z,27.83
2023-03-05T15:27:53.835Z,27.31
2023-03-05T15:31:54.006Z,27.49
2023-03-05T15:35:54.278Z,25.93
2023-03-05T15:39:54.467Z,30.72
2023-03-05T15:43:54.687Z,25.67
2023-03-05T15:47:54.659Z,27.06
2023-03-05T15:51:54.598Z,27.38
2023-03-05T15:55:54.569Z,26.62
2023-03-05T15:59:54.527Z,27.97
2023-03-05T16:03:54.525Z,25.00
2023-03-05T16:07:54.521Z,26.73
2023-03-05T16:11:54.441Z,25.94
2023-03-05T16:15:54.590Z,25.64
2023-03-05T16:19:54.369Z,25.00
2023-03-05T16:23:54.327Z,30.01
2023-03-05T16:27:54.400Z,30.67
2023-03-05T16:31:54.562Z,29.51
2023-03-05T16:35:56.135Z,39.54
2023-03-05T16:39:54.780Z,36.53
2023-03-05T16:43:54.826Z,32.73
2023-03-05T16:47:54.929Z,34.66
2023-03-05T16:51:54.971Z,36.70
2023-03-05T16:55:54.957Z,35.39
2023-03-05T16:59:54.978Z,33.41
2023-03-05T17:03:54.988Z,34.63
2023-03-05T17:07:55.771Z,35.24
2023-03-05T17:11:54.931Z,35.27
2023-03-05T17:15:57.021Z,33.24
2023-03-05T17:19:54.914Z,34.77
2023-03-05T17:23:54.836Z,35.71
2023-03-05T17:27:54.819Z,34.73
2023-03-05T17:31:54.786Z,32.14
2023-03-05T17:35:54.789Z,33.68
2023-03-05T17:39:54.701Z,34.48
2023-03-05T17:43:54.690Z,40.19
2023-03-05T17:47:54.647Z,34.20
2023-03-05T17:51:54.583Z,33.92
2023-03-05T17:55:54.590Z,36.11
2023-03-05T17:59:54.596Z,37.24
2023-03-05T18:03:54.571Z,34.38
2023-03-05T18:07:54.444Z,35.83
2023-03-05T18:11:54.442Z,34.32
2023-03-05T18:17:45.017Z,25.00
2023-03-05T18:21:45.130Z,26.12
2023-03-05T18:25:45.186Z,29.71
2023-03-05T18:29:45.285Z,29.56
2023-03-05T18:33:45.409Z,29.81
2023-03-05T18:37:45.494Z,30.72
2023-03-05T18:41:45.560Z,29.78
2023-03-05T18:45:45.733Z,29.10
2023-03-05T18:49:45.804Z,28.84
2023-03-05T18:53:45.955Z,29.30
2023-03-05T18:57:46.048Z,33.31
2023-03-05T19:01:46.215Z,30.58
2023-03-05T19:05:46.292Z,31.75
2023-03-05T19:09:46.409Z,31.06
2023-03-05T19:13:46.564Z,32.45
2023-03-05T19:17:46.699Z,31.50
2023-03-05T19:21:46.848Z,31.39
2023-03-05T19:25:46.994Z,27.41
2023-03-05T19:29:47.126Z,33.11
2023-03-05T19:33:47.254Z,32.07
2023-03-05T19:37:47.449Z,36.47
2023-03-05T19:41:47.620Z,33.73
2023-03-05T19:45:47.733Z,34.24
2023-03-05T19:49:47.952Z,35.36
2023-03-05T19:53:48.071Z,35.86
2023-03-05T19:57:48.246Z,33.29
2023-03-05T20:01:48.468Z,33.88
2023-03-05T20:05:48.562Z,31.31
2023-03-05T20:09:48.796Z,32.87
2023-03-05T20:13:48.848Z,36.65
2023-03-05T20:17:49.012Z,35.25
2023-03-05T20:21:49.180Z,34.61
2023-03-05T20:25:49.305Z,37.77
2023-03-05T20:29:49.580Z,37.12
2023-03-05T20:33:49.602Z,37.42
2023-03-05T20:37:49.774Z,39.23
2023-03-05T20:41:49.987Z,36.05
2023-03-05T20:45:50.120Z,37.35
2023-03-05T20:49:50.343Z,38.73
2023-03-05T20:53:50.469Z,38.15
2023-03-05T20:57:50.663Z,40.05
2023-03-05T21:01:50.886Z,38.47
2023-03-05T21:05:51.014Z,37.70
2023-03-05T21:09:51.193Z,38.80
2023-03-05T21:13:51.375Z,39.35
2023-03-05T21:17:51.515Z,41.73
2023-03-05T21:21:51.720Z,40.59
2023-03-05T21:25:52.012Z,37.97
2023-03-05T21:29:52.134Z,41.36
2023-03-05T21:33:52.351Z,39.69
2023-03-05T21:37:52.566Z,37.83
2023-03-05T21:41:52.767Z,37.45
2023-03-05T21:45:53.010Z,39.21
2023-03-05T21:49:53.132Z,38.08
2023-03-05T21:53:53.331Z,42.30
2023-03-05T21:57:53.583Z,38.29
2023-03-05T22:01:53.756Z,38.42
2023-03-05T22:05:53.709Z,40.90
2023-03-05T22:09:53.681Z,38.28
2023-03-05T22:13:53.653Z,40.91
2023-03-05T22:17:53.640Z,39.65
2023-03-05T22:21:53.688Z,38.76
2023-03-05T22:25:53.543Z,39.70
2023-03-05T22:29:53.533Z,39.34
2023-03-05T22:33:53.478Z,36.88
2023-03-05T22:37:53.457Z,38.53
2023-03-05T22:41:53.458Z,36.96
2023-03-05T22:45:53.456Z,40.80
2023-03-05T22:49:53.406Z,37.20
2023-03-05T22:53:53.365Z,38.21
2023-03-05T22:57:53.279Z,38.96
2023-03-05T23:01:53.266Z,38.88
2023-03-05T23:05:53.240Z,42.18
2023-03-05T23:09:53.247Z,41.71
2023-03-05T23:13:53.206Z,38.19
2023-03-05T23:17:53.133Z,37.46
2023-03-05T23:21:53.072Z,39.22
2023-03-05T23:25:53.111Z,39.13
2023-03-05T23:29:53.029Z,38.11
2023-03-05T23:33:53.066Z,39.12
2023-03-05T23:37:53.128Z,38.77
2023-03-05T23:41:53.207Z,36.46
2023-03-05T23:45:53.241Z,39.42
2023-03-05T23:49:53.261Z,37.74
2023-03-05T23:53:53.282Z,40.74
2023-03-05T23:57:53.274Z,38.54
